Home > Products > Valid Products > TAF

000
FTUS43 KPAH 290520
TAFCGI
TAF
KCGI 290520Z 2906/3006 00000KT P6SM SCT250
     FM291600 18010G20KT P6SM BKN060 OVC100
     FM292300 22006KT P6SM BKN200=



000
FTUS43 KPAH 290520
TAFPAH
TAF
KPAH 290520Z 2906/3006 00000KT P6SM SCT250
     FM291600 18010G18KT P6SM BKN060 OVC100
     FM292300 22006KT P6SM BKN200=



000
FTUS43 KPAH 290520
TAFEVV
TAF
KEVV 290520Z 2906/3006 00000KT P6SM FEW250
     FM291400 17010G18KT P6SM BKN040 OVC100
     FM292300 22006KT P6SM BKN200=



000
FTUS43 KPAH 290520
TAFPAH
TAF
KPAH 290520Z 2906/3006 00000KT P6SM SCT250
     FM291600 18010G18KT P6SM BKN060 OVC100
     FM292300 22006KT P6SM BKN200=



000
FTUS43 KPAH 290520
TAFEVV
TAF
KEVV 290520Z 2906/3006 00000KT P6SM FEW250
     FM291400 17010G18KT P6SM BKN040 OVC100
     FM292300 22006KT P6SM BKN200=



000
FTUS43 KPAH 290520
TAFCGI
TAF
KCGI 290520Z 2906/3006 00000KT P6SM SCT250
     FM291600 18010G20KT P6SM BKN060 OVC100
     FM292300 22006KT P6SM BKN200=



000
FTUS43 KPAH 282320
TAFPAH
TAF
KPAH 282320Z 2900/2924 00000KT P6SM SCT250
     FM291400 18010G18KT P6SM BKN250=



000
FTUS43 KPAH 282320
TAFEVV
TAF
KEVV 282320Z 2900/2924 00000KT P6SM FEW250
     FM291400 17010G18KT P6SM BKN250=



000
FTUS43 KPAH 282320
TAFCGI
TAF
KCGI 282320Z 2900/2924 00000KT P6SM SCT250
     FM291400 18010G20KT P6SM BKN250=



000
FTUS43 KPAH 281720
TAFEVV
TAF
KEVV 281720Z 2818/2918 VRB03KT P6SM FEW250
     FM291400 17010G18KT P6SM BKN250=



000
FTUS43 KPAH 281720
TAFCGI
TAF
KCGI 281720Z 2818/2918 VRB03KT P6SM SCT250
     FM291400 18010G20KT P6SM BKN250=



000
FTUS43 KPAH 281720
TAFPAH
TAF
KPAH 281720Z 2818/2918 VRB03KT P6SM SCT250
     FM291400 18010G18KT P6SM BKN250=



000
FTUS43 KPAH 281720
TAFEVV
TAF
KEVV 281720Z 2818/2918 VRB03KT P6SM FEW250
     FM291400 17010G18KT P6SM BKN250=



000
FTUS43 KPAH 281720
TAFCGI
TAF
KCGI 281720Z 2818/2918 VRB03KT P6SM SCT250
     FM291400 18010G20KT P6SM BKN250=



000
FTUS43 KPAH 281720
TAFPAH
TAF
KPAH 281720Z 2818/2918 VRB03KT P6SM SCT250
     FM291400 18010G18KT P6SM BKN250=



000
FTUS43 KPAH 281120
TAFCGI
TAF
KCGI 281120Z 2812/2912 VRB03KT P6SM SCT060 BKN100
     FM281500 VRB03KT P6SM SCT030 BKN060
     FM290000 VRB03KT P6SM SCT060 BKN150=



000
FTUS43 KPAH 281120
TAFEVV
TAF
KEVV 281120Z 2812/2912 VRB04KT P6SM SCT090 BKN250
     FM281500 VRB05KT P6SM SCT040 BKN090
     FM290000 VRB03KT P6SM SCT060 BKN150=



000
FTUS43 KPAH 281120
TAFPAH
TAF
KPAH 281120Z 2812/2912 VRB03KT P6SM SCT060 BKN100
     FM281500 VRB05KT P6SM SCT030 BKN060
     FM290000 VRB03KT P6SM SCT060 BKN150=



000
FTUS43 KPAH 281120
TAFCGI
TAF
KCGI 281120Z 2812/2912 VRB03KT P6SM SCT060 BKN100
     FM281500 VRB03KT P6SM SCT030 BKN060
     FM290000 VRB03KT P6SM SCT060 BKN150=



000
FTUS43 KPAH 281120
TAFEVV
TAF
KEVV 281120Z 2812/2912 VRB04KT P6SM SCT090 BKN250
     FM281500 VRB05KT P6SM SCT040 BKN090
     FM290000 VRB03KT P6SM SCT060 BKN150=



000
FTUS43 KPAH 281120
TAFPAH
TAF
KPAH 281120Z 2812/2912 VRB03KT P6SM SCT060 BKN100
     FM281500 VRB05KT P6SM SCT030 BKN060
     FM290000 VRB03KT P6SM SCT060 BKN150=



000
FTUS43 KPAH 280533
TAFPAH
TAF
KPAH 280533Z 2806/2906 03003KT P6SM SCT100 SCT200=



000
FTUS43 KPAH 280533
TAFCGI
TAF
KCGI 280533Z 2806/2906 03003KT P6SM SCT100=



000
FTUS43 KPAH 280533
TAFEVV
TAF
KEVV 280533Z 2806/2906 02004KT P6SM SCT250=



000
FTUS43 KPAH 280533
TAFCGI
TAF
KCGI 280533Z 2806/2906 03003KT P6SM SCT100=



000
FTUS43 KPAH 280533
TAFPAH
TAF
KPAH 280533Z 2806/2906 03003KT P6SM SCT100 SCT200=



000
FTUS43 KPAH 280533
TAFEVV
TAF
KEVV 280533Z 2806/2906 02004KT P6SM SCT250=



000
FTUS43 KPAH 272338
TAFPAH
TAF
KPAH 272338Z 2800/2824 36006KT P6SM BKN050
     FM280300 03003KT P6SM SCT100 BKN200=



000
FTUS43 KPAH 272338
TAFCGI
TAF
KCGI 272338Z 2800/2824 36006KT P6SM BKN050
     FM280200 03003KT P6SM SCT100=



000
FTUS43 KPAH 272338
TAFEVV
TAF
KEVV 272338Z 2800/2824 36010KT P6SM BKN050
     FM280300 02004KT P6SM SCT250=



000
FTUS43 KPAH 272338
TAFPAH
TAF
KPAH 272338Z 2800/2824 36006KT P6SM BKN050
     FM280300 03003KT P6SM SCT100 BKN200=



000
FTUS43 KPAH 272338
TAFEVV
TAF
KEVV 272338Z 2800/2824 36010KT P6SM BKN050
     FM280300 02004KT P6SM SCT250=



000
FTUS43 KPAH 272338
TAFCGI
TAF
KCGI 272338Z 2800/2824 36006KT P6SM BKN050
     FM280200 03003KT P6SM SCT100=



000
FTUS43 KPAH 272025 AAA
TAFEVV
TAF AMD
KEVV 272025Z 2720/2818 36010KT P6SM SCT025 BKN040
      TEMPO 2720/2723 36010G20KT
     FM280100 01004KT P6SM SCT250=



000
FTUS43 KPAH 272025 AAA
TAFEVV
TAF AMD
KEVV 272025Z 2720/2818 36010KT P6SM SCT025 BKN040
      TEMPO 2720/2723 36010G20KT
     FM280100 01004KT P6SM SCT250=



000
FTUS43 KPAH 271720
TAFEVV
TAF
KEVV 271720Z 2718/2818 36010KT P6SM SCT025 BKN040
      TEMPO 2718/2720 -SN BKN025
     FM280100 01004KT P6SM SCT250=



000
FTUS43 KPAH 271720
TAFCGI
TAF
KCGI 271720Z 2718/2818 35012KT P6SM SCT030 BKN050
     FM280000 06003KT P6SM SCT100 BKN200=



000
FTUS43 KPAH 271720
TAFPAH
TAF
KPAH 271720Z 2718/2818 35012KT P6SM SCT025 BKN040
     FM280000 05003KT P6SM SCT100 BKN200=



000
FTUS43 KPAH 271518 AAB
TAFPAH
TAF AMD
KPAH 271518Z 2715/2812 35013KT P6SM VCSH BKN050
     FM271800 35012KT P6SM SCT050 OVC150
     FM272300 35006KT P6SM SCT150 BKN250
     FM280200 VRB03KT P6SM SCT250
     FM281100 VRB03KT P6SM SCT100 OVC250=



000
FTUS43 KPAH 271457 AAA
TAFCGI
TAF AMD
KCGI 271457Z 2715/2812 36010KT P6SM VCSH SCT040 BKN080
     FM271700 35012KT P6SM SCT050 OVC150
     FM280200 VRB03KT P6SM SCT250
     FM281000 VRB03KT P6SM SCT100 OVC250=



000
FTUS43 KPAH 271120
TAFCGI
TAF
KCGI 271120Z 2712/2812 30005KT P6SM SCT050 OVC100
     FM271500 34010KT P6SM SCT030 OVC050
     FM271900 35012KT P6SM SCT050 OVC150
     FM272300 36007KT P6SM SCT150 BKN250
     FM280200 VRB03KT P6SM SCT250
     FM281000 VRB03KT P6SM SCT100 OVC250=



000
FTUS43 KPAH 271120
TAFPAH
TAF
KPAH 271120Z 2712/2812 29005KT P6SM SCT050 OVC100
     FM271500 34010KT P6SM SCT030 OVC050
     FM272000 35012KT P6SM SCT050 OVC150
     FM272300 35006KT P6SM SCT150 BKN250
     FM280200 VRB03KT P6SM SCT250
     FM281100 VRB03KT P6SM SCT100 OVC250=



000
FTUS43 KPAH 271120
TAFEVV
TAF
KEVV 271120Z 2712/2812 33006KT P6SM SCT060 OVC120
     FM271500 34011KT P6SM SCT030 OVC060
     FM272300 35007KT P6SM SCT060 BKN250
     FM280200 VRB03KT P6SM SCT250=



000
FTUS43 KPAH 270520
TAFPAH
TAF
KPAH 270520Z 2706/2806 36010KT P6SM BKN250
     FM271000 36004KT P6SM SCT050 BKN100
     FM271400 34010KT P6SM BKN150
     FM272300 VRB03KT P6SM SCT250=



000
FTUS43 KPAH 270520
TAFCGI
TAF
KCGI 270520Z 2706/2806 36010KT P6SM SCT025 BKN250
     FM270900 36005KT P6SM OVC150
     FM271400 34010KT P6SM BKN150
     FM272300 VRB03KT P6SM SCT250=



000
FTUS43 KPAH 270520
TAFEVV
TAF
KEVV 270520Z 2706/2806 33006KT P6SM SCT120
     FM271400 34011KT P6SM BKN150
     FM272300 VRB03KT P6SM SCT250=



000
FTUS43 KPAH 270520
TAFPAH
TAF
KPAH 270520Z 2706/2806 36010KT P6SM BKN250
     FM271000 36004KT P6SM SCT050 BKN100
     FM271400 34010KT P6SM BKN150
     FM272300 VRB03KT P6SM SCT250=



000
FTUS43 KPAH 270520
TAFCGI
TAF
KCGI 270520Z 2706/2806 36010KT P6SM SCT025 BKN250
     FM270900 36005KT P6SM OVC150
     FM271400 34010KT P6SM BKN150
     FM272300 VRB03KT P6SM SCT250=



000
FTUS43 KPAH 270520
TAFEVV
TAF
KEVV 270520Z 2706/2806 33006KT P6SM SCT120
     FM271400 34011KT P6SM BKN150
     FM272300 VRB03KT P6SM SCT250=



000
FTUS43 KPAH 262339
TAFEVV
TAF
KEVV 262339Z 2700/2724 35005KT P6SM BKN120
     FM270400 33006KT P6SM SCT120
     FM271400 34011KT P6SM BKN150=



000
FTUS43 KPAH 262339
TAFPAH
TAF
KPAH 262339Z 2700/2724 36010KT P6SM BKN250
     FM271000 36004KT P6SM SCT050 BKN100
     FM271400 34010KT P6SM BKN150=



000
FTUS43 KPAH 262339
TAFCGI
TAF
KCGI 262339Z 2700/2724 36010KT P6SM SCT025 BKN250
     FM270900 36005KT P6SM OVC150
     FM271400 34010KT P6SM BKN150=



000
FTUS43 KPAH 262339
TAFCGI
TAF
KCGI 262339Z 2700/2724 36010KT P6SM SCT025 BKN250
     FM270900 36005KT P6SM OVC150
     FM271400 34010KT P6SM BKN150=



000
FTUS43 KPAH 262339
TAFPAH
TAF
KPAH 262339Z 2700/2724 36010KT P6SM BKN250
     FM271000 36004KT P6SM SCT050 BKN100
     FM271400 34010KT P6SM BKN150=



000
FTUS43 KPAH 262339
TAFEVV
TAF
KEVV 262339Z 2700/2724 35005KT P6SM BKN120
     FM270400 33006KT P6SM SCT120
     FM271400 34011KT P6SM BKN150=



000
FTUS43 KPAH 261729
TAFCGI
TAF
KCGI 261729Z 2618/2718 36015KT 6SM -RA BKN015 OVC025
     FM262100 36010KT P6SM SCT025 BKN250
     FM270900 36005KT P6SM BKN050 OVC100=



000
FTUS43 KPAH 261729
TAFPAH
TAF
KPAH 261729Z 2618/2718 36010KT 6SM -RA SCT008 OVC015
     FM262200 36010KT P6SM SCT025 BKN250
     FM271000 36004KT P6SM SCT050 BKN100=



000
FTUS43 KPAH 261729
TAFEVV
TAF
KEVV 261729Z 2618/2718 35010KT 6SM -RA BKN010 OVC025
     FM262200 35005KT P6SM SCT025 BKN250
     FM271500 33009KT P6SM SCT050 BKN120=



000
FTUS43 KPAH 261605 AAB
TAFPAH
TAF AMD
KPAH 261605Z 2616/2712 36010KT 6SM -RA SCT008 OVC015
      TEMPO 2616/2619 3SM -RA BR BKN007 OVC012
     FM261900 36012G19KT P6SM SCT012 BKN025
     FM270000 36004KT P6SM SCT025 BKN100=



000
FTUS43 KPAH 261443 AAA
TAFEVV
TAF AMD
KEVV 261443Z 2615/2712 01010KT 6SM -RA BR BKN008 OVC015
      TEMPO 2615/2618 OVC008
     FM261800 35010KT P6SM SCT012 BKN025
     FM270000 35005KT P6SM SCT025 BKN100=



000
FTUS43 KPAH 261440 AAB
TAFPAH
TAF AMD
KPAH 261440Z 2615/2712 36010KT 6SM -RA OVC015
     FM261900 36012G19KT P6SM SCT012 BKN025
     FM270000 36004KT P6SM SCT025 BKN100=



000
FTUS43 KPAH 261440 AAB
TAFPAH
TAF AMD
KPAH 261440Z 2615/2712 36010KT 6SM -RA OVC015
     FM261900 36012G19KT P6SM SCT012 BKN025
     FM270000 36004KT P6SM SCT025 BKN100=



000
FTUS43 KPAH 261439 AAA
TAFCGI
TAF AMD
KCGI 261439Z 2615/2712 35013G20KT 6SM -RA BKN025 OVC050
     FM261800 36010KT P6SM SCT012 BKN025
     FM270000 36004KT P6SM SCT025 BKN100=



000
FTUS43 KPAH 261439 AAA
TAFCGI
TAF AMD
KCGI 261439Z 2615/2712 35013G20KT 6SM -RA BKN025 OVC050
     FM261800 36010KT P6SM SCT012 BKN025
     FM270000 36004KT P6SM SCT025 BKN100=



000
FTUS43 KPAH 261120
TAFPAH
TAF
KPAH 261120Z 2612/2712 36010KT 4SM -RA BR SCT006 OVC012
      TEMPO 2612/2615 2SM -RA BR OVC006
     FM261900 36012G19KT P6SM SCT012 BKN025
     FM270000 36004KT P6SM SCT025 BKN100=



000
FTUS43 KPAH 261120
TAFCGI
TAF
KCGI 261120Z 2612/2712 35013G20KT P6SM OVC012
      TEMPO 2612/2614 5SM -RA BR
     FM261900 36010KT P6SM SCT012 BKN025
     FM270000 36004KT P6SM SCT025 BKN100=



000
FTUS43 KPAH 261120
TAFEVV
TAF
KEVV 261120Z 2612/2712 01010KT 4SM -RA BR SCT008 OVC015
      TEMPO 2612/2615 2SM -RA BR OVC007
     FM262000 35010KT P6SM SCT012 BKN025
     FM270000 35005KT P6SM SCT025 BKN100=



    US Dept of Commerce
    National Oceanic and Atmospheric Administration
    National Weather Service
    1325 East West Highway
    Silver Spring, MD 20910
    Page Author: NWS Internet Services Team
Disclaimer
Information Quality
Credits
Glossary
Privacy Policy
Freedom of Information Act (FOIA)
About Us
Career Opportunities